Brookley Field, Alabama
Current Conditions -  °F | °C
As of 7:53 AM on Wednesday 28 Jan 2015 (Local Time) from KBFM Reporting Station
Clear Clear  
Wind Chill: 41°   Ceiling: Unl
Heat Index: 46°   Visibility: 10mi
Dew Point: 35°   Wind: 9mph
Humidity: 66%   Direction: 20°NNE
Pressure: 30.31"   Gusts: NA
Location:  30.641°N, 88.065°W
Report Text: KBFM 281353Z 02008KT 10SM CLR 08/02 A3031 RMK AO2 SLP262 T00780017
Loading
Personal Weather Stations






























Interactive Weather Map New forecast layout! Learn more

10-Day Weather Forecast

Advertisements
Track Severe Weather on mobile